ENSO/SRP METAR and TAF weather

Enter ICAO airport designator
Station Type Date Time Source
ENSO METAR 2020/07/06 08:50 UTC NOAA

ENSO 060850Z 32032G43KT 9999 SCT025 BKN035 13/09 Q0994


Station Type Date Time Source
ENSO Decoded METAR 2020/07/06 08:50 UTC NOAA

Stord / Soerstokken, Norway (ENSO) 59-48N 005-21E
Jul 06, 2020 - 04:50 AM EDT / 2020.07.06 0850 UTC
Wind: from the NW (320 degrees) at 37 MPH (32 KT) gusting to 49 MPH (43 KT):0
Visibility: greater than 7 mile(s):0
Sky conditions: mostly cloudy
Temperature: 55 F (13 C)
Dew Point: 48 F (9 C)
Relative Humidity: 76%
Pressure (altimeter): 29.35 in. Hg (0994 hPa)
ob: ENSO 060850Z 32032G43KT 9999 SCT025 BKN035 13/09 Q0994
cycle: 9

Station Type Date Time Source
ENSO TAF UTC NOAA

Error!

Example: see airport list